Time;durP1;ratioP1;P1;durP2;ratioP2;P2;SDS_P1;SDS_P2;PMS_P1;PMS_P2;Temp;Humidity;BMP_temperature;BMP_pressure;BME280_temperature;BME280_humidity;BME280_pressure;Samples;Min_cycle;Max_cycle;Signal;HPM_P1;HPM_P2
2021/03/12 00:01:15;;;;;;;0.60;0.40;;;7.50;99.90;;;;;;5078942;28;20214;-80
2021/03/12 00:03:42;;;;;;;1.17;1.02;;;7.40;99.90;;;;;;5087311;28;20709;-81
2021/03/12 00:06:10;;;;;;;1.15;0.95;;;7.30;99.90;;;;;;5079685;28;21031;-80
2021/03/12 00:08:39;;;;;;;0.82;0.80;;;7.30;99.90;;;;;;5077586;28;20208;-79
2021/03/12 00:11:07;;;;;;;0.70;0.57;;;7.20;99.90;;;;;;5076474;28;20295;-80
2021/03/12 00:13:33;;;;;;;3.00;1.05;;;7.20;99.90;;;;;;5078525;28;20198;-80
2021/03/12 00:16:00;;;;;;;0.50;0.50;;;7.10;99.90;;;;;;5077065;28;20603;-81
2021/03/12 00:18:32;;;;;;;1.42;0.90;;;7.10;99.90;;;;;;5081402;28;20197;-78
2021/03/12 00:20:59;;;;;;;0.50;0.50;;;7.10;99.90;;;;;;5080081;28;20214;-80
2021/03/12 00:23:25;;;;;;;0.60;0.60;;;7.00;99.90;;;;;;5080964;28;20197;-80
2021/03/12 00:25:52;;;;;;;0.50;0.40;;;7.00;99.90;;;;;;5080351;28;20224;-81
2021/03/12 00:28:19;;;;;;;0.57;0.55;;;7.00;99.90;;;;;;5081857;28;20268;-81
2021/03/12 00:30:46;;;;;;;0.50;0.40;;;7.00;99.90;;;;;;5081018;28;20222;-80
2021/03/12 00:33:14;;;;;;;1.10;1.10;;;7.00;99.90;;;;;;5090752;28;20194;-81
2021/03/12 00:35:43;;;;;;;2.25;0.73;;;7.00;99.90;;;;;;5101539;28;20295;-80
2021/03/12 00:38:09;;;;;;;2.20;0.77;;;7.00;99.90;;;;;;5101002;28;20837;-80
2021/03/12 00:40:39;;;;;;;0.50;0.40;;;7.00;99.90;;;;;;5100956;28;20217;-82
2021/03/12 00:43:05;;;;;;;1.10;0.90;;;7.00;99.90;;;;;;5100765;28;20193;-80
2021/03/12 00:45:35;;;;;;;0.50;0.40;;;6.90;99.90;;;;;;5100883;28;20192;-81
2021/03/12 00:48:01;;;;;;;0.60;0.50;;;7.00;99.90;;;;;;5081690;28;20702;-80
2021/03/12 00:50:32;;;;;;;1.15;1.05;;;6.90;99.90;;;;;;5080419;28;20201;-80
2021/03/12 00:52:58;;;;;;;0.50;0.40;;;6.90;99.90;;;;;;5075785;28;20186;-81
2021/03/12 00:55:25;;;;;;;0.80;0.70;;;6.90;99.90;;;;;;5077808;28;20632;-80
2021/03/12 00:57:52;;;;;;;1.55;1.45;;;6.90;99.90;;;;;;5077762;28;20586;-81
2021/03/12 01:00:20;;;;;;;0.50;0.50;;;6.90;99.90;;;;;;5078483;28;20539;-80
2021/03/12 01:02:47;;;;;;;1.02;0.73;;;6.90;99.90;;;;;;5085907;28;20186;-82
2021/03/12 01:05:13;;;;;;;0.50;0.40;;;6.90;99.90;;;;;;5096853;28;20252;-82
2021/03/12 01:07:40;;;;;;;0.60;0.60;;;6.90;99.90;;;;;;5097893;28;20263;-78
2021/03/12 01:10:07;;;;;;;1.50;1.50;;;6.90;99.90;;;;;;5078956;28;20191;-81
2021/03/12 01:12:34;;;;;;;1.50;0.80;;;6.90;99.90;;;;;;5098450;28;20213;-80
2021/03/12 01:15:00;;;;;;;1.02;1.02;;;7.00;99.90;;;;;;5099323;28;20200;-80
2021/03/12 01:17:26;;;;;;;2.97;1.25;;;6.90;99.90;;;;;;5097979;28;20196;-78
2021/03/12 01:19:53;;;;;;;0.95;0.70;;;6.90;99.90;;;;;;5099223;28;20193;-80
2021/03/12 01:22:20;;;;;;;1.15;1.00;;;6.80;99.90;;;;;;5098766;28;20209;-80
2021/03/12 01:24:46;;;;;;;1.50;0.80;;;6.80;99.90;;;;;;5098086;28;20200;-80
2021/03/12 01:27:12;;;;;;;5.90;0.95;;;6.70;99.90;;;;;;5098597;28;20219;-80
2021/03/12 01:29:38;;;;;;;2.15;1.15;;;6.70;99.90;;;;;;5099031;28;20217;-80
2021/03/12 01:32:05;;;;;;;0.50;0.50;;;6.70;99.90;;;;;;5092577;28;20287;-82
2021/03/12 01:34:32;;;;;;;1.63;0.95;;;6.70;99.90;;;;;;5091131;28;20188;-80
2021/03/12 01:36:59;;;;;;;0.60;0.60;;;6.70;99.90;;;;;;5097925;28;20695;-80
2021/03/12 01:39:25;;;;;;;1.35;0.57;;;6.70;99.90;;;;;;5097866;28;20193;-80
2021/03/12 01:41:52;;;;;;;2.00;1.20;;;6.70;99.90;;;;;;5080508;28;20270;-80
2021/03/12 01:44:18;;;;;;;0.60;0.50;;;6.70;99.90;;;;;;5098715;28;20197;-80
2021/03/12 01:46:44;;;;;;;1.63;0.70;;;6.70;99.90;;;;;;5090231;28;20193;-80
2021/03/12 01:49:10;;;;;;;0.90;0.90;;;6.70;99.90;;;;;;5077938;28;20296;-79
2021/03/12 01:51:37;;;;;;;1.23;1.13;;;6.80;99.90;;;;;;5077876;28;20209;-79
2021/03/12 01:54:05;;;;;;;0.70;0.63;;;6.80;99.90;;;;;;5078625;28;20296;-80
2021/03/12 01:56:31;;;;;;;6.78;2.25;;;6.80;99.90;;;;;;5077203;28;20190;-81
2021/03/12 01:58:58;;;;;;;0.93;0.63;;;6.80;99.90;;;;;;5078362;28;20200;-79
2021/03/12 02:01:24;;;;;;;0.50;0.40;;;6.90;99.90;;;;;;5081609;28;20212;-79
2021/03/12 02:03:50;;;;;;;0.80;0.80;;;6.90;99.90;;;;;;5089871;28;20185;-80
2021/03/12 02:06:16;;;;;;;1.40;1.40;;;6.90;99.90;;;;;;5098029;28;20193;-80
2021/03/12 02:08:43;;;;;;;0.60;0.50;;;6.90;99.90;;;;;;5097326;28;20205;-78
2021/03/12 02:11:10;;;;;;;1.52;1.42;;;6.90;99.90;;;;;;5097950;28;20210;-80
2021/03/12 02:13:43;;;;;;;0.90;0.75;;;6.90;99.90;;;;;;5097816;28;20189;-80
2021/03/12 02:16:16;;;;;;;0.70;0.68;;;6.80;99.90;;;;;;5097818;28;20197;-81
2021/03/12 02:18:50;;;;;;;0.68;0.68;;;6.80;99.90;;;;;;5098383;28;20189;-80
2021/03/12 02:21:26;;;;;;;1.58;1.13;;;6.80;99.90;;;;;;5099551;28;20208;-78
2021/03/12 02:24:02;;;;;;;3.05;1.77;;;6.60;99.90;;;;;;5098825;28;20344;-81
2021/03/12 02:26:53;;;;;;;1.38;1.05;;;6.10;99.90;;;;;;5096358;28;20173;-82
2021/03/12 02:29:21;;;;;;;2.88;1.35;;;5.80;99.90;;;;;;5097282;28;20190;-80
2021/03/12 02:31:50;;;;;;;1.30;1.20;;;5.70;99.90;;;;;;5091963;28;20213;-80
2021/03/12 02:34:19;;;;;;;1.30;1.20;;;5.70;99.90;;;;;;5089322;28;20185;-80
2021/03/12 02:36:50;;;;;;;2.45;2.35;;;5.70;99.90;;;;;;5096081;28;20189;-81
2021/03/12 02:39:20;;;;;;;2.97;1.40;;;5.70;99.90;;;;;;5096547;28;20181;-80
2021/03/12 02:41:49;;;;;;;1.17;0.75;;;5.70;99.90;;;;;;5096512;28;20216;-80
2021/03/12 02:44:17;;;;;;;3.88;1.80;;;5.70;99.90;;;;;;5097035;28;20211;-80
2021/03/12 02:46:45;;;;;;;2.95;2.13;;;5.70;99.90;;;;;;5082346;28;20730;-81
2021/03/12 02:49:13;;;;;;;1.90;1.67;;;5.80;99.90;;;;;;5074107;28;20205;-81
2021/03/12 02:51:39;;;;;;;2.60;1.65;;;5.80;99.90;;;;;;5076070;28;20221;-80
2021/03/12 02:54:06;;;;;;;2.42;1.88;;;5.80;99.90;;;;;;5076175;28;20190;-80
2021/03/12 02:56:33;;;;;;;1.20;1.10;;;5.90;99.90;;;;;;5075725;28;20197;-80
2021/03/12 02:58:59;;;;;;;1.10;1.00;;;5.90;99.90;;;;;;5075744;28;20206;-80
2021/03/12 03:01:28;;;;;;;3.30;3.00;;;5.90;99.90;;;;;;5078544;28;20208;-79
2021/03/12 03:03:55;;;;;;;0.60;0.50;;;5.90;99.90;;;;;;5087188;28;20197;-79
2021/03/12 03:06:22;;;;;;;2.67;1.67;;;6.00;99.90;;;;;;5095441;28;20193;-80
2021/03/12 03:08:49;;;;;;;0.68;0.60;;;6.00;99.90;;;;;;5093937;28;20209;-79
2021/03/12 03:11:17;;;;;;;1.23;1.13;;;6.00;99.90;;;;;;5096030;28;20205;-80
2021/03/12 03:13:45;;;;;;;1.58;1.48;;;6.10;99.90;;;;;;5096305;28;20671;-81
2021/03/12 03:16:19;;;;;;;1.88;0.82;;;6.10;99.90;;;;;;5094795;28;20196;-80
2021/03/12 03:18:47;;;;;;;4.03;0.88;;;6.10;99.90;;;;;;5095217;28;20165;-80
2021/03/12 03:21:15;;;;;;;0.60;0.57;;;6.10;99.90;;;;;;5095624;28;20845;-80
2021/03/12 03:23:44;;;;;;;0.98;0.98;;;6.20;99.90;;;;;;5096163;28;20192;-80
2021/03/12 03:26:11;;;;;;;0.98;0.65;;;6.20;99.90;;;;;;5094619;28;20192;-80
2021/03/12 03:28:37;;;;;;;0.50;0.40;;;6.20;99.90;;;;;;5095569;28;20220;-80
2021/03/12 03:31:05;;;;;;;1.17;1.02;;;6.20;99.90;;;;;;5091459;28;20233;-81
2021/03/12 03:33:33;;;;;;;0.90;0.90;;;6.20;99.90;;;;;;5087124;28;20214;-82
2021/03/12 03:36:01;;;;;;;0.50;0.40;;;6.30;99.90;;;;;;5095842;28;20189;-81
2021/03/12 03:38:28;;;;;;;0.73;0.73;;;6.30;99.90;;;;;;5095425;28;20185;-80
2021/03/12 03:40:54;;;;;;;1.48;0.90;;;6.30;99.90;;;;;;5097011;28;20545;-80
2021/03/12 03:43:25;;;;;;;1.02;0.93;;;6.30;99.90;;;;;;5097193;28;20185;-79
2021/03/12 03:45:52;;;;;;;1.33;0.65;;;6.30;99.90;;;;;;5095159;28;20180;-80
2021/03/12 03:48:20;;;;;;;1.27;1.17;;;6.30;99.90;;;;;;5074485;28;20217;-82
2021/03/12 03:50:46;;;;;;;0.50;0.47;;;6.30;99.90;;;;;;5075186;28;20206;-81
2021/03/12 03:53:14;;;;;;;0.50;0.40;;;6.40;99.90;;;;;;5078758;28;20283;-81
2021/03/12 03:55:41;;;;;;;3.70;2.58;;;6.40;99.90;;;;;;5078922;28;20196;-81
2021/03/12 03:58:09;;;;;;;2.58;1.45;;;6.40;99.90;;;;;;5078488;28;20194;-81
2021/03/12 04:00:36;;;;;;;1.17;1.05;;;6.40;99.90;;;;;;5078954;28;20186;-81
2021/03/12 04:03:04;;;;;;;0.90;0.90;;;6.40;99.90;;;;;;5087580;28;20193;-82
2021/03/12 04:05:31;;;;;;;0.50;0.40;;;6.40;99.90;;;;;;5099864;28;20234;-80
2021/03/12 04:08:00;;;;;;;0.88;0.77;;;6.40;99.90;;;;;;5098381;28;20262;-81
2021/03/12 04:10:28;;;;;;;2.88;0.80;;;6.40;99.90;;;;;;5097779;28;20197;-81
2021/03/12 04:12:55;;;;;;;0.50;0.50;;;6.40;99.90;;;;;;5100093;28;20185;-81
2021/03/12 04:15:22;;;;;;;0.57;0.55;;;6.40;99.90;;;;;;5100290;28;20246;-81
2021/03/12 04:17:49;;;;;;;1.75;0.80;;;6.40;99.90;;;;;;5098282;28;20189;-81
2021/03/12 04:20:16;;;;;;;0.50;0.40;;;6.40;99.90;;;;;;5099654;28;20189;-80
2021/03/12 04:22:44;;;;;;;4.65;1.63;;;6.30;99.90;;;;;;5099607;28;20189;-82
2021/03/12 04:25:10;;;;;;;2.05;1.95;;;6.30;99.90;;;;;;5099685;28;20196;-82
2021/03/12 04:27:38;;;;;;;0.50;0.40;;;6.30;99.90;;;;;;5098243;28;20655;-81
2021/03/12 04:30:06;;;;;;;0.73;0.73;;;6.30;99.90;;;;;;5098956;28;20228;-80
2021/03/12 04:32:33;;;;;;;1.27;1.25;;;6.30;99.90;;;;;;5088105;28;20230;-80
2021/03/12 04:34:59;;;;;;;0.80;0.80;;;6.30;99.90;;;;;;5095258;28;20181;-80
2021/03/12 04:37:27;;;;;;;0.90;0.73;;;6.30;99.90;;;;;;5098771;28;20189;-80
2021/03/12 04:39:54;;;;;;;0.55;0.55;;;6.30;99.90;;;;;;5098754;28;20200;-81
2021/03/12 04:42:21;;;;;;;3.33;1.05;;;6.30;99.90;;;;;;5098684;28;20217;-78
2021/03/12 04:44:48;;;;;;;0.60;0.60;;;6.30;99.90;;;;;;5097742;28;20185;-80
2021/03/12 04:47:15;;;;;;;0.50;0.40;;;6.30;99.90;;;;;;5085929;28;20194;-79
2021/03/12 04:49:44;;;;;;;1.23;1.23;;;6.30;99.90;;;;;;5076940;28;20570;-79
2021/03/12 04:52:10;;;;;;;1.35;1.25;;;6.30;99.90;;;;;;5077079;28;20300;-79
2021/03/12 04:54:37;;;;;;;3.25;0.98;;;6.30;99.90;;;;;;5077522;28;20183;-80
2021/03/12 04:57:04;;;;;;;1.63;1.52;;;6.30;99.90;;;;;;5076904;28;20254;-79
2021/03/12 04:59:30;;;;;;;0.50;0.50;;;6.30;99.90;;;;;;5077992;28;20202;-79
2021/03/12 05:01:58;;;;;;;0.60;0.60;;;6.30;99.90;;;;;;5085873;28;20216;-80
2021/03/12 05:04:25;;;;;;;0.63;0.63;;;6.30;99.90;;;;;;5096801;28;20181;-79
2021/03/12 05:06:51;;;;;;;9.57;1.40;;;6.30;99.90;;;;;;5098645;28;20192;-80
2021/03/12 05:09:18;;;;;;;0.50;0.50;;;6.30;99.90;;;;;;5095013;28;20270;-80
2021/03/12 05:11:44;;;;;;;0.88;0.85;;;6.30;99.90;;;;;;5097739;28;20209;-80
2021/03/12 05:14:11;;;;;;;0.50;0.40;;;6.20;99.90;;;;;;5098174;28;20218;-79
2021/03/12 05:16:37;;;;;;;0.60;0.50;;;6.20;99.90;;;;;;5097103;28;20600;-80
2021/03/12 05:19:05;;;;;;;1.17;1.08;;;6.20;99.90;;;;;;5097134;28;20193;-80
2021/03/12 05:21:32;;;;;;;1.73;0.55;;;6.10;99.90;;;;;;5097893;28;20273;-80
2021/03/12 05:23:58;;;;;;;0.50;0.40;;;6.10;99.90;;;;;;5098734;28;20201;-80
2021/03/12 05:26:25;;;;;;;6.20;1.40;;;6.10;99.90;;;;;;5097599;28;20599;-80
2021/03/12 05:28:53;;;;;;;14.07;2.08;;;6.10;99.90;;;;;;5097423;28;20702;-79
2021/03/12 05:31:20;;;;;;;0.70;0.70;;;6.10;99.90;;;;;;5092656;28;20228;-81
2021/03/12 05:33:46;;;;;;;0.85;0.80;;;6.10;99.90;;;;;;5088847;28;20262;-80
2021/03/12 05:36:13;;;;;;;0.65;0.60;;;6.10;99.90;;;;;;5098624;28;20189;-79
2021/03/12 05:38:39;;;;;;;1.30;1.20;;;6.00;99.90;;;;;;5099061;28;20197;-80
2021/03/12 05:41:06;;;;;;;0.50;0.40;;;6.00;99.90;;;;;;5099551;28;20209;-80
2021/03/12 05:43:33;;;;;;;2.15;0.73;;;5.90;99.90;;;;;;5100948;28;20199;-78
2021/03/12 05:46:00;;;;;;;0.50;0.43;;;5.90;99.90;;;;;;5098209;28;20276;-79
2021/03/12 05:48:27;;;;;;;0.50;0.40;;;5.90;99.90;;;;;;5071924;28;20206;-79
2021/03/12 05:50:53;;;;;;;0.50;0.40;;;5.80;99.90;;;;;;5080680;28;20221;-80
2021/03/12 05:53:21;;;;;;;4.03;1.17;;;5.80;99.90;;;;;;5080410;28;20212;-79
2021/03/12 05:55:47;;;;;;;1.98;1.50;;;5.70;99.90;;;;;;5079068;28;20197;-78
2021/03/12 05:58:14;;;;;;;0.50;0.40;;;5.70;99.90;;;;;;5080155;28;20189;-79
2021/03/12 06:00:40;;;;;;;3.65;1.55;;;5.70;99.90;;;;;;5079266;28;20217;-80
2021/03/12 06:03:08;;;;;;;0.75;0.60;;;5.70;99.90;;;;;;5088049;28;20278;-79
2021/03/12 06:05:34;;;;;;;0.50;0.40;;;5.70;99.90;;;;;;5100940;28;20185;-80
2021/03/12 06:08:01;;;;;;;0.60;0.60;;;5.60;99.90;;;;;;5099635;28;20203;-79
2021/03/12 06:10:28;;;;;;;0.60;0.50;;;5.70;99.90;;;;;;5099106;28;20200;-79
2021/03/12 06:12:55;;;;;;;24.15;1.77;;;5.70;99.90;;;;;;5100787;28;20577;-79
2021/03/12 06:15:33;;;;;;;3.88;1.05;;;5.70;99.90;;;;;;5100189;28;20217;-79
2021/03/12 06:17:59;;;;;;;0.60;0.60;;;5.70;99.90;;;;;;5100480;28;20240;-82
2021/03/12 06:20:26;;;;;;;7.32;1.40;;;5.80;99.90;;;;;;5100378;28;20189;-78
2021/03/12 06:22:55;;;;;;;0.70;0.60;;;5.80;99.90;;;;;;5100529;28;20309;-79
2021/03/12 06:25:23;;;;;;;0.70;0.70;;;5.80;99.90;;;;;;5100537;28;20208;-79
2021/03/12 06:27:52;;;;;;;0.50;0.40;;;5.90;99.90;;;;;;5102050;28;20329;-79
2021/03/12 06:30:20;;;;;;;1.27;0.80;;;5.90;99.90;;;;;;5102703;28;20566;-79
2021/03/12 06:32:48;;;;;;;2.67;1.65;;;6.00;99.90;;;;;;5092131;28;20236;-79
2021/03/12 06:35:19;;;;;;;0.70;0.65;;;6.00;99.90;;;;;;5082058;28;20240;-80
2021/03/12 06:37:47;;;;;;;0.80;0.80;;;6.10;99.90;;;;;;5080974;28;20606;-79
2021/03/12 06:40:23;;;;;;;0.80;0.80;;;6.10;99.90;;;;;;5082036;28;20200;-78
2021/03/12 06:43:08;;;;;;;0.88;0.88;;;6.20;99.90;;;;;;5080997;28;20189;-82
2021/03/12 06:45:53;;;;;;;5.95;1.25;;;6.20;99.90;;;;;;5080526;28;20190;-80
2021/03/12 06:48:21;;;;;;;2.00;1.00;;;6.20;99.90;;;;;;5059503;28;20205;-80
2021/03/12 06:50:49;;;;;;;0.80;0.70;;;6.20;99.90;;;;;;5060270;28;20210;-79
2021/03/12 06:53:34;;;;;;;6.75;1.35;;;6.30;99.90;;;;;;5060415;28;20277;-79
2021/03/12 06:56:02;;;;;;;5.85;0.93;;;6.30;99.90;;;;;;5059713;28;20332;-80
2021/03/12 06:58:30;;;;;;;1.67;0.85;;;6.30;99.90;;;;;;5062257;28;20201;-79
2021/03/12 07:00:56;;;;;;;3.65;1.95;;;6.40;99.90;;;;;;5064342;28;20740;-79
2021/03/12 07:03:27;;;;;;;0.60;0.60;;;6.40;99.90;;;;;;5088569;28;20218;-78
2021/03/12 07:06:04;;;;;;;2.67;0.98;;;6.40;99.90;;;;;;5080543;28;20224;-79
2021/03/12 07:08:37;;;;;;;2.85;1.63;;;6.40;99.90;;;;;;5081579;28;20197;-79
2021/03/12 07:11:18;;;;;;;1.30;0.60;;;6.40;99.90;;;;;;5080251;28;20221;-81
2021/03/12 07:13:46;;;;;;;1.95;1.85;;;6.40;99.90;;;;;;5081186;28;20197;-79
2021/03/12 07:16:12;;;;;;;4.40;1.30;;;6.40;99.90;;;;;;5082046;28;20190;-82
2021/03/12 07:18:39;;;;;;;9.13;2.22;;;6.50;99.90;;;;;;5082019;28;20338;-79
2021/03/12 07:21:07;;;;;;;3.33;1.88;;;6.40;99.90;;;;;;5081919;28;20243;-81
2021/03/12 07:23:37;;;;;;;5.82;2.30;;;6.40;99.90;;;;;;5080698;28;20204;-79
2021/03/12 07:26:06;;;;;;;14.98;3.15;;;6.40;99.90;;;;;;5079821;28;20202;-80
2021/03/12 07:28:34;;;;;;;5.93;0.70;;;6.40;99.90;;;;;;5080569;28;20243;-82
2021/03/12 07:31:05;;;;;;;9.88;2.47;;;6.40;99.90;;;;;;5079830;28;20264;-82
2021/03/12 07:33:34;;;;;;;4.10;0.88;;;6.40;99.90;;;;;;5102989;28;20182;-80
2021/03/12 07:36:03;;;;;;;0.80;0.70;;;6.50;99.90;;;;;;5081118;28;20258;-81
2021/03/12 07:38:33;;;;;;;0.88;0.80;;;6.50;99.90;;;;;;5079243;28;20208;-80
2021/03/12 07:41:01;;;;;;;10.68;2.40;;;6.60;99.90;;;;;;5085720;28;20286;-81
2021/03/12 07:43:28;;;;;;;3.40;0.95;;;6.60;99.90;;;;;;5083163;28;20190;-79
2021/03/12 07:45:55;;;;;;;1.58;1.48;;;6.60;99.90;;;;;;5079476;28;20253;-79
2021/03/12 07:48:28;;;;;;;14.48;1.15;;;6.60;99.90;;;;;;5060775;28;20205;-81
2021/03/12 07:51:05;;;;;;;7.55;1.40;;;6.60;99.90;;;;;;5060174;28;20240;-78
2021/03/12 07:53:48;;;;;;;0.50;0.50;;;6.70;99.90;;;;;;5059829;28;20190;-79
2021/03/12 07:56:15;;;;;;;1.55;1.02;;;6.80;99.90;;;;;;5059444;28;20201;-79
2021/03/12 07:58:59;;;;;;;1.33;1.15;;;6.90;99.90;;;;;;5058121;28;20710;-79
2021/03/12 08:01:26;;;;;;;2.88;1.25;;;6.80;99.90;;;;;;5070575;28;20216;-78
2021/03/12 08:03:54;;;;;;;0.98;0.90;;;6.90;99.90;;;;;;5089474;28;20201;-78
2021/03/12 08:06:34;;;;;;;4.88;2.10;;;6.90;99.90;;;;;;5097225;28;20201;-79
2021/03/12 08:09:02;;;;;;;1.60;1.13;;;7.00;99.90;;;;;;5095817;28;20233;-79
2021/03/12 08:11:33;;;;;;;0.98;0.90;;;7.00;99.90;;;;;;5094594;28;20237;-79
2021/03/12 08:14:16;;;;;;;2.25;1.30;;;7.00;99.90;;;;;;5076519;28;20182;-78
2021/03/12 08:17:16;;;;;;;0.77;0.77;;;7.00;99.90;;;;;;5075480;28;20280;-78
2021/03/12 08:19:48;;;;;;;8.32;0.80;;;7.10;99.90;;;;;;5076247;28;20302;-79
2021/03/12 08:22:41;;;;;;;1.75;1.27;;;7.10;99.90;;;;;;5076193;28;20312;-79
2021/03/12 08:25:08;;;;;;;37.97;2.58;;;7.10;99.90;;;;;;5076152;28;20616;-79
2021/03/12 08:27:42;;;;;;;1.77;0.63;;;7.10;99.90;;;;;;5074005;28;20194;-78
2021/03/12 08:30:11;;;;;;;2.35;1.30;;;7.00;99.90;;;;;;5076325;28;20543;-78
2021/03/12 08:32:44;;;;;;;3.85;2.17;;;7.20;99.90;;;;;;5087636;28;20220;-79
2021/03/12 08:35:38;;;;;;;3.63;1.20;;;7.20;99.90;;;;;;5095949;28;20185;-81
2021/03/12 08:38:05;;;;;;;9.60;2.05;;;7.40;99.90;;;;;;5097302;28;20189;-79
2021/03/12 08:40:33;;;;;;;1.60;1.52;;;7.50;99.90;;;;;;5101506;28;20238;-80
2021/03/12 08:43:03;;;;;;;13.02;3.17;;;7.70;99.90;;;;;;5101158;28;20192;-80
2021/03/12 08:45:37;;;;;;;0.63;0.63;;;7.60;99.90;;;;;;5100895;28;20188;-81
2021/03/12 08:48:05;;;;;;;9.77;2.53;;;7.60;99.90;;;;;;5082648;28;20524;-78
2021/03/12 08:50:33;;;;;;;7.47;1.73;;;7.70;99.90;;;;;;5081041;28;20210;-79
2021/03/12 08:53:00;;;;;;;1.80;1.05;;;7.70;99.90;;;;;;5081824;28;20197;-78
2021/03/12 08:55:26;;;;;;;3.08;1.27;;;7.60;99.90;;;;;;5080986;28;20285;-79
2021/03/12 08:58:11;;;;;;;10.43;1.52;;;7.60;99.90;;;;;;5080241;28;20194;-79
2021/03/12 09:00:37;;;;;;;3.90;0.93;;;7.30;99.90;;;;;;5081827;28;20174;-79
2021/03/12 09:03:17;;;;;;;2.42;1.27;;;7.40;99.90;;;;;;5089769;28;20223;-79
2021/03/12 09:05:44;;;;;;;4.55;1.08;;;7.40;99.90;;;;;;5101882;28;20236;-79
2021/03/12 09:08:13;;;;;;;1.00;0.90;;;7.50;99.90;;;;;;5102116;28;20614;-79
2021/03/12 09:10:41;;;;;;;0.70;0.60;;;7.60;99.90;;;;;;5101497;28;20755;-79
2021/03/12 09:13:18;;;;;;;0.63;0.63;;;7.50;99.90;;;;;;5101528;28;20193;-80
2021/03/12 09:15:45;;;;;;;3.53;1.08;;;7.60;99.90;;;;;;5080549;28;20227;-80
2021/03/12 09:18:16;;;;;;;0.77;0.77;;;7.60;99.90;;;;;;5081879;28;20190;-78
2021/03/12 09:20:44;;;;;;;8.45;2.05;;;7.60;99.90;;;;;;5080230;28;20206;-78
2021/03/12 09:23:11;;;;;;;10.13;1.63;;;7.70;99.90;;;;;;5079233;28;20224;-79
2021/03/12 09:25:37;;;;;;;1.67;0.63;;;7.60;99.90;;;;;;5078784;28;20194;-80
2021/03/12 09:28:07;;;;;;;7.70;1.30;;;7.60;99.90;;;;;;5078394;28;20200;-82
2021/03/12 09:30:35;;;;;;;3.70;1.23;;;7.70;99.90;;;;;;5078142;28;20544;-80
2021/03/12 09:33:01;;;;;;;1.35;1.35;;;8.00;99.90;;;;;;5089658;28;20173;-79
2021/03/12 09:35:28;;;;;;;5.28;2.10;;;8.40;99.90;;;;;;5082302;28;20746;-77
2021/03/12 09:37:57;;;;;;;0.80;0.57;;;8.40;99.90;;;;;;5081195;28;20190;-83
2021/03/12 09:40:40;;;;;;;3.72;1.02;;;8.30;99.90;;;;;;5080836;28;20266;-79
2021/03/12 09:43:07;;;;;;;1.13;0.50;;;8.40;99.90;;;;;;5082577;28;20182;-81
2021/03/12 09:45:34;;;;;;;2.47;0.95;;;8.30;99.90;;;;;;5082059;28;20204;-81
2021/03/12 09:48:00;;;;;;;1.23;0.95;;;8.40;99.90;;;;;;5080386;28;20194;-80
2021/03/12 09:50:27;;;;;;;3.08;1.27;;;8.30;99.90;;;;;;5080092;28;20233;-80
2021/03/12 09:52:56;;;;;;;8.52;1.77;;;8.30;99.90;;;;;;5082117;28;20204;-81
2021/03/12 09:55:23;;;;;;;1.17;0.60;;;8.30;99.90;;;;;;5082377;28;20194;-79
2021/03/12 09:57:50;;;;;;;1.13;0.77;;;8.40;99.90;;;;;;5080586;28;20190;-80
2021/03/12 10:00:22;;;;;;;0.70;0.70;;;8.60;99.90;;;;;;5081650;28;20186;-79
2021/03/12 10:02:54;;;;;;;0.82;0.70;;;8.70;99.90;;;;;;5089584;28;20227;-81
2021/03/12 10:05:21;;;;;;;10.52;0.93;;;9.20;99.90;;;;;;5102689;28;20734;-81
2021/03/12 10:07:48;;;;;;;0.60;0.50;;;9.50;99.90;;;;;;5101821;28;20196;-79
2021/03/12 10:10:18;;;;;;;2.35;1.52;;;9.70;99.90;;;;;;5101728;28;20224;-81
2021/03/12 10:12:45;;;;;;;10.95;1.25;;;9.80;99.90;;;;;;5102100;28;20217;-81
2021/03/12 10:15:14;;;;;;;0.98;0.82;;;9.80;99.90;;;;;;5103255;28;20655;-80
2021/03/12 10:17:42;;;;;;;1.25;1.15;;;9.30;99.90;;;;;;5101815;28;20186;-81
2021/03/12 10:20:18;;;;;;;1.77;1.00;;;9.10;99.90;;;;;;5103378;28;20249;-81
2021/03/12 10:22:46;;;;;;;0.60;0.52;;;8.90;99.90;;;;;;5102771;28;20249;-81
2021/03/12 10:25:16;;;;;;;2.15;1.17;;;8.80;99.90;;;;;;5104406;28;20189;-81
2021/03/12 10:27:45;;;;;;;0.85;0.85;;;8.70;99.90;;;;;;5103475;28;20193;-80
2021/03/12 10:30:14;;;;;;;1.48;1.00;;;8.60;99.90;;;;;;5104217;28;20217;-80
2021/03/12 10:32:43;;;;;;;6.13;1.80;;;8.60;99.90;;;;;;5091870;28;20215;-82
2021/03/12 10:35:25;;;;;;;6.07;1.50;;;8.90;99.90;;;;;;5100844;28;20189;-80
2021/03/12 10:37:52;;;;;;;8.48;1.85;;;9.30;99.90;;;;;;5101713;28;20198;-80
2021/03/12 10:40:20;;;;;;;1.85;1.17;;;9.50;99.90;;;;;;5103430;28;20210;-82
2021/03/12 10:42:47;;;;;;;1.00;1.00;;;9.50;99.90;;;;;;5102986;28;20596;-81
2021/03/12 10:45:26;;;;;;;2.70;0.90;;;9.30;99.90;;;;;;5103255;28;20196;-80
2021/03/12 10:47:57;;;;;;;2.95;0.75;;;9.20;99.90;;;;;;5102319;28;20200;-81
2021/03/12 10:50:25;;;;;;;4.57;1.70;;;9.10;99.90;;;;;;5102234;28;20223;-80
2021/03/12 10:53:01;;;;;;;1.63;1.08;;;9.00;99.90;;;;;;5103128;28;20208;-81
2021/03/12 10:55:31;;;;;;;5.70;0.98;;;9.10;99.90;;;;;;5103416;28;20189;-79
2021/03/12 10:57:59;;;;;;;2.75;2.55;;;9.10;99.90;;;;;;5102116;28;20193;-81
2021/03/12 11:00:28;;;;;;;3.92;1.08;;;9.00;99.90;;;;;;5102257;28;20201;-80
2021/03/12 11:02:57;;;;;;;3.47;0.98;;;8.90;99.90;;;;;;5094569;28;20185;-82
2021/03/12 11:05:24;;;;;;;7.47;1.45;;;8.90;99.90;;;;;;5082492;28;20182;-80
2021/03/12 11:07:51;;;;;;;1.08;0.70;;;8.80;99.90;;;;;;5081763;28;20221;-81
2021/03/12 11:10:17;;;;;;;0.75;0.75;;;8.70;99.90;;;;;;5079328;28;20221;-79
2021/03/12 11:12:45;;;;;;;26.85;1.90;;;8.70;99.90;;;;;;5080944;28;20206;-80
2021/03/12 11:15:13;;;;;;;7.50;1.30;;;8.60;99.90;;;;;;5080687;28;20198;-79
2021/03/12 11:17:45;;;;;;;5.97;2.08;;;8.60;99.90;;;;;;5080978;28;20194;-81
2021/03/12 11:20:13;;;;;;;3.80;1.38;;;8.70;99.90;;;;;;5081487;28;20179;-81
2021/03/12 11:22:39;;;;;;;5.57;1.25;;;8.70;99.90;;;;;;5082719;28;20216;-82
2021/03/12 11:25:07;;;;;;;1.33;0.95;;;8.80;99.90;;;;;;5081153;28;20189;-81
2021/03/12 11:27:34;;;;;;;1.95;0.95;;;8.90;99.90;;;;;;5081085;28;20198;-82
2021/03/12 11:30:01;;;;;;;7.13;3.13;;;9.00;99.90;;;;;;5082086;28;20210;-80
2021/03/12 11:32:28;;;;;;;1.30;0.70;;;9.00;99.90;;;;;;5088939;28;20268;-81
2021/03/12 11:34:55;;;;;;;0.65;0.65;;;9.00;99.90;;;;;;5098098;28;20190;-81
2021/03/12 11:37:21;;;;;;;10.57;1.70;;;9.00;99.90;;;;;;5101664;28;20589;-81
2021/03/12 11:39:47;;;;;;;0.60;0.52;;;9.20;99.90;;;;;;5102331;28;20242;-81
2021/03/12 11:42:14;;;;;;;6.57;1.60;;;9.20;99.90;;;;;;5101875;28;20217;-79
2021/03/12 11:44:40;;;;;;;2.55;1.45;;;9.20;99.90;;;;;;5102361;28;20418;-81
2021/03/12 11:47:06;;;;;;;3.15;1.38;;;9.20;99.90;;;;;;5100640;28;20196;-82
2021/03/12 11:49:33;;;;;;;1.25;0.80;;;9.00;99.90;;;;;;5102216;28;20228;-81
2021/03/12 11:52:00;;;;;;;0.82;0.82;;;9.10;99.90;;;;;;5102470;28;20219;-82
2021/03/12 11:54:26;;;;;;;0.50;0.40;;;9.20;99.90;;;;;;5102502;28;20193;-78
2021/03/12 11:56:52;;;;;;;6.07;1.52;;;9.30;99.90;;;;;;5102173;28;20728;-80
2021/03/12 11:59:19;;;;;;;2.80;0.60;;;9.30;99.90;;;;;;5103046;28;20194;-81
2021/03/12 12:01:46;;;;;;;1.40;1.08;;;9.30;99.90;;;;;;5097035;28;20209;-81
2021/03/12 12:04:12;;;;;;;1.20;0.70;;;9.50;99.90;;;;;;5083438;28;20250;-82
2021/03/12 12:06:39;;;;;;;7.43;0.93;;;9.50;99.90;;;;;;5081103;28;20206;-81
2021/03/12 12:09:06;;;;;;;1.15;0.40;;;9.30;99.90;;;;;;5080079;28;20217;-82
2021/03/12 12:11:32;;;;;;;1.45;0.95;;;9.30;99.90;;;;;;5082112;28;20214;-82
2021/03/12 12:13:59;;;;;;;1.77;0.50;;;9.30;99.90;;;;;;5083807;28;20192;-83
2021/03/12 12:16:27;;;;;;;7.47;1.88;;;9.40;99.90;;;;;;5085884;28;20208;-81
2021/03/12 12:18:54;;;;;;;1.65;1.05;;;9.40;99.90;;;;;;5085713;28;20186;-82
2021/03/12 12:21:21;;;;;;;2.55;0.93;;;9.30;99.90;;;;;;5085840;28;20277;-80
2021/03/12 12:23:47;;;;;;;12.32;1.98;;;9.30;99.90;;;;;;5086443;28;20203;-83
2021/03/12 12:26:30;;;;;;;3.63;1.25;;;9.30;99.90;;;;;;5086317;28;20255;-81
2021/03/12 12:28:56;;;;;;;5.32;1.20;;;9.30;99.90;;;;;;5086183;28;20211;-80
2021/03/12 12:31:23;;;;;;;5.45;0.85;;;9.20;99.90;;;;;;5089420;28;20209;-78
2021/03/12 12:33:51;;;;;;;7.22;1.80;;;9.20;99.90;;;;;;5098604;28;20285;-81
2021/03/12 12:36:18;;;;;;;2.33;1.25;;;9.20;99.90;;;;;;5105128;28;20197;-82
2021/03/12 12:38:44;;;;;;;1.20;1.13;;;9.10;99.90;;;;;;5107004;28;20279;-83
2021/03/12 12:41:10;;;;;;;1.48;1.38;;;9.10;99.90;;;;;;5107370;28;20206;-82
2021/03/12 12:43:37;;;;;;;3.10;1.75;;;9.10;99.90;;;;;;5105992;28;20193;-83
2021/03/12 12:46:04;;;;;;;3.47;1.15;;;9.10;99.90;;;;;;5104952;28;20197;-80
2021/03/12 12:48:30;;;;;;;2.78;1.13;;;9.10;99.90;;;;;;5106807;28;20204;-80
2021/03/12 12:50:56;;;;;;;6.43;1.25;;;9.00;99.90;;;;;;5104894;28;20213;-81
2021/03/12 12:53:26;;;;;;;1.30;1.17;;;8.90;99.90;;;;;;5106204;28;20205;-81
2021/03/12 12:55:52;;;;;;;8.57;1.38;;;9.00;99.90;;;;;;5105682;28;20201;-79
2021/03/12 12:58:19;;;;;;;4.07;1.20;;;9.50;99.90;;;;;;5106579;28;20204;-80
2021/03/12 13:00:47;;;;;;;5.57;1.13;;;9.70;99.90;;;;;;5102167;28;20205;-83
2021/03/12 13:03:13;;;;;;;2.10;1.38;;;9.90;99.90;;;;;;5095731;28;20202;-79
2021/03/12 13:05:40;;;;;;;4.00;0.90;;;10.00;99.90;;;;;;5106237;28;20288;-82